createdAt,value
2023-03-15T06:17:03.653Z,8.55
2023-03-15T06:19:30.598Z,8.65
2023-03-15T06:21:57.558Z,8.60
2023-03-15T06:24:25.311Z,8.64
2023-03-15T06:26:54.882Z,8.62
2023-03-15T06:29:22.168Z,8.73
2023-03-15T06:31:53.032Z,8.76
2023-03-15T06:34:21.250Z,8.84
2023-03-15T06:36:49.713Z,8.84
2023-03-15T06:39:16.583Z,8.88
2023-03-15T06:41:43.392Z,8.84
2023-03-15T06:44:11.016Z,8.94
2023-03-15T06:46:37.958Z,8.97
2023-03-15T06:49:04.818Z,8.99
2023-03-15T06:51:31.697Z,8.89
2023-03-15T06:53:58.550Z,8.94
2023-03-15T06:56:25.513Z,8.86
2023-03-15T06:58:52.319Z,8.95
2023-03-15T07:01:19.166Z,9.06
2023-03-15T07:03:46.014Z,8.95
2023-03-15T07:06:12.822Z,9.03
2023-03-15T07:08:39.709Z,9.11
2023-03-15T07:11:06.630Z,9.09
2023-03-15T07:13:33.623Z,9.12
2023-03-15T07:16:00.963Z,9.09
2023-03-15T07:18:27.974Z,9.10
2023-03-15T07:20:59.189Z,9.08
2023-03-15T07:23:26.252Z,9.20
2023-03-15T07:25:55.616Z,9.21
2023-03-15T07:28:24.048Z,9.26
2023-03-15T07:31:04.427Z,9.39
2023-03-15T07:33:33.223Z,9.31
2023-03-15T07:36:00.336Z,9.27
2023-03-15T07:38:30.876Z,9.25
2023-03-15T07:40:57.993Z,9.30
2023-03-15T07:43:24.955Z,9.34
2023-03-15T07:45:51.792Z,9.37
2023-03-15T07:48:18.866Z,9.46
2023-03-15T07:50:46.007Z,9.46
2023-03-15T07:53:12.841Z,9.55
2023-03-15T07:55:39.664Z,9.70
2023-03-15T07:58:06.429Z,9.72
2023-03-15T08:00:33.564Z,9.73
2023-03-15T08:03:00.573Z,9.74
2023-03-15T08:05:29.129Z,9.64
2023-03-15T08:07:56.858Z,9.68
2023-03-15T08:10:23.881Z,9.89
2023-03-15T08:12:50.954Z,10.10
2023-03-15T08:15:19.206Z,10.20
2023-03-15T08:17:48.089Z,10.29
2023-03-15T08:20:17.908Z,10.35
2023-03-15T08:22:48.473Z,10.39
2023-03-15T08:25:17.050Z,10.44
2023-03-15T08:27:44.323Z,10.47
2023-03-15T08:30:12.972Z,10.52
2023-03-15T08:32:41.379Z,10.55
2023-03-15T08:35:09.146Z,10.57
2023-03-15T08:37:36.270Z,10.61
2023-03-15T08:40:09.141Z,10.68
2023-03-15T08:42:39.332Z,10.73
2023-03-15T08:45:07.679Z,10.83
2023-03-15T08:47:38.033Z,10.82
2023-03-15T08:50:07.240Z,10.81
2023-03-15T08:52:34.164Z,10.82
2023-03-15T08:55:01.322Z,10.86
2023-03-15T08:57:29.125Z,10.93
2023-03-15T08:59:56.465Z,10.99
2023-03-15T09:02:23.672Z,11.03
2023-03-15T09:04:52.464Z,11.13
2023-03-15T09:07:21.933Z,11.21
2023-03-15T09:09:49.276Z,11.22
2023-03-15T09:12:17.160Z,11.27
2023-03-15T09:14:44.720Z,11.30
2023-03-15T09:17:11.893Z,11.35
2023-03-15T09:19:39.577Z,11.39
2023-03-15T09:22:16.837Z,11.44
2023-03-15T09:24:51.767Z,11.48
2023-03-15T09:27:19.123Z,11.48
2023-03-15T09:29:45.973Z,11.52
2023-03-15T09:32:13.592Z,11.52
2023-03-15T09:34:42.307Z,11.63
2023-03-15T09:37:09.999Z,11.65
2023-03-15T09:39:38.005Z,11.67
2023-03-15T09:42:13.990Z,11.68
2023-03-15T09:44:54.813Z,11.72
2023-03-15T09:47:46.926Z,11.75
2023-03-15T09:50:19.317Z,11.76
2023-03-15T09:53:21.367Z,11.76
2023-03-15T09:55:48.975Z,11.78
2023-03-15T09:58:32.819Z,11.78
2023-03-15T10:01:06.216Z,11.81
2023-03-15T10:03:39.889Z,11.84
2023-03-15T10:06:23.047Z,11.83
2023-03-15T10:08:52.404Z,11.83
2023-03-15T10:12:05.476Z,11.85
2023-03-15T10:14:41.510Z,11.88
2023-03-15T10:17:43.063Z,11.89
2023-03-15T10:20:49.779Z,11.93
2023-03-15T10:23:47.717Z,11.94
2023-03-15T10:26:38.743Z,11.95
2023-03-15T10:29:14.697Z,11.95
2023-03-15T10:32:04.256Z,11.96
2023-03-15T10:34:35.950Z,11.98
2023-03-15T10:38:01.303Z,12.01
2023-03-15T10:41:02.960Z,12.00
2023-03-15T10:43:52.587Z,12.02
2023-03-15T10:46:26.967Z,12.01
2023-03-15T10:49:25.274Z,12.01
2023-03-15T10:51:53.238Z,12.01
2023-03-15T10:54:23.495Z,12.04
2023-03-15T10:56:58.492Z,12.06
2023-03-15T10:59:28.294Z,12.06
2023-03-15T11:02:11.862Z,12.07
2023-03-15T11:04:49.490Z,12.08
2023-03-15T11:07:16.745Z,12.08
2023-03-15T11:09:46.097Z,12.09
2023-03-15T11:12:21.980Z,12.10
2023-03-15T11:14:52.029Z,12.10
2023-03-15T11:17:28.419Z,12.09
2023-03-15T11:20:13.118Z,12.09
2023-03-15T11:22:40.495Z,12.16
2023-03-15T11:25:17.598Z,12.14
2023-03-15T11:27:46.928Z,12.11
2023-03-15T11:30:16.314Z,12.14
2023-03-15T11:32:44.147Z,12.12
2023-03-15T11:35:32.645Z,12.15
2023-03-15T11:38:15.758Z,12.09
2023-03-15T11:40:45.313Z,12.14
2023-03-15T11:43:25.365Z,12.12
2023-03-15T11:45:56.845Z,12.12
2023-03-15T11:48:25.905Z,12.16
2023-03-15T11:50:54.437Z,12.14
2023-03-15T11:53:21.893Z,12.15
2023-03-15T11:55:50.812Z,12.14
2023-03-15T11:58:42.705Z,12.19
2023-03-15T12:01:11.543Z,12.17
2023-03-15T12:03:43.457Z,12.15
2023-03-15T12:06:34.305Z,12.11
2023-03-15T12:09:02.001Z,12.12
2023-03-15T12:11:28.759Z,12.14
2023-03-15T12:13:58.361Z,12.15
2023-03-15T12:16:31.310Z,12.13
2023-03-15T12:18:59.327Z,12.13
2023-03-15T12:21:32.786Z,12.14
2023-03-15T12:24:05.702Z,12.15
2023-03-15T12:26:43.295Z,12.16
2023-03-15T12:29:19.708Z,12.18
2023-03-15T12:31:52.970Z,12.19
2023-03-15T12:34:51.513Z,12.20
2023-03-15T12:37:32.472Z,12.20
2023-03-15T12:40:20.422Z,12.22
2023-03-15T12:42:47.296Z,12.23
2023-03-15T12:45:17.124Z,12.23
2023-03-15T12:47:49.924Z,12.28
2023-03-15T12:50:35.445Z,12.26
2023-03-15T12:53:13.170Z,12.27
2023-03-15T12:55:40.564Z,12.29
2023-03-15T12:58:10.895Z,12.26
2023-03-15T13:00:38.642Z,12.27
2023-03-15T13:03:08.371Z,12.29
2023-03-15T13:06:03.294Z,12.29
2023-03-15T13:08:36.390Z,12.29
2023-03-15T13:11:15.683Z,12.29
2023-03-15T13:14:00.123Z,12.30
2023-03-15T13:16:41.013Z,12.32
2023-03-15T13:19:17.751Z,12.34
2023-03-15T13:22:25.745Z,12.34
2023-03-15T13:24:58.020Z,12.32
2023-03-15T13:27:43.791Z,12.27
2023-03-15T13:30:37.500Z,12.27
2023-03-15T13:33:20.140Z,12.28
2023-03-15T13:35:57.617Z,12.29
2023-03-15T13:38:27.948Z,12.28
2023-03-15T13:40:56.130Z,12.30
2023-03-15T13:43:38.837Z,12.31
2023-03-15T13:46:06.083Z,12.33
2023-03-15T13:48:37.985Z,12.34
2023-03-15T13:51:25.965Z,12.36
2023-03-15T13:53:56.955Z,12.36
2023-03-15T13:56:43.545Z,12.39
2023-03-15T13:59:15.694Z,12.38
2023-03-15T14:01:43.287Z,12.39
2023-03-15T14:04:19.357Z,12.41
2023-03-15T14:06:46.989Z,12.42
2023-03-15T14:09:24.748Z,12.42
2023-03-15T14:12:23.284Z,12.44
2023-03-15T14:14:53.907Z,12.49
2023-03-15T14:17:29.888Z,12.49
2023-03-15T14:20:09.327Z,12.48
2023-03-15T14:22:42.460Z,12.49
2023-03-15T14:25:22.581Z,12.49
2023-03-15T14:27:49.490Z,12.50
2023-03-15T14:30:25.059Z,12.51
2023-03-15T14:32:54.725Z,12.52
2023-03-15T14:35:26.654Z,12.52
2023-03-15T14:38:23.804Z,12.53
2023-03-15T14:40:52.128Z,12.52
2023-03-15T14:43:19.447Z,12.52
2023-03-15T14:45:47.820Z,12.54
2023-03-15T14:48:27.374Z,12.56
2023-03-15T14:50:54.929Z,12.57
2023-03-15T14:53:24.555Z,12.56
2023-03-15T14:55:51.434Z,12.55
2023-03-15T14:58:22.930Z,12.56
2023-03-15T15:00:55.660Z,12.56
2023-03-15T15:03:41.137Z,12.57
2023-03-15T15:06:11.873Z,12.56
2023-03-15T15:08:40.257Z,12.56
2023-03-15T15:11:11.043Z,12.56
2023-03-15T15:13:39.127Z,12.59
2023-03-15T15:16:07.483Z,12.57
2023-03-15T15:18:36.989Z,12.59
2023-03-15T15:21:27.627Z,12.58
2023-03-15T15:23:58.880Z,12.60
2023-03-15T15:26:29.147Z,12.60
2023-03-15T15:28:56.918Z,12.61
2023-03-15T15:31:25.487Z,12.60
2023-03-15T15:33:54.079Z,12.59
2023-03-15T15:36:52.275Z,12.61
2023-03-15T15:39:27.751Z,12.60
2023-03-15T15:41:54.700Z,12.62
2023-03-15T15:44:25.097Z,12.62
2023-03-15T15:46:52.441Z,12.64
2023-03-15T15:49:20.063Z,12.66
2023-03-15T15:51:49.970Z,12.67
2023-03-15T15:54:23.321Z,12.69
2023-03-15T15:56:52.622Z,12.68
2023-03-15T15:59:19.845Z,12.70
2023-03-15T16:02:00.148Z,12.70
2023-03-15T16:04:28.531Z,12.70
2023-03-15T16:07:01.872Z,12.71
2023-03-15T16:09:30.594Z,12.70
2023-03-15T16:11:57.482Z,12.69
2023-03-15T16:14:24.295Z,12.68
2023-03-15T16:16:51.212Z,12.68
2023-03-15T16:19:18.095Z,12.67
2023-03-15T16:21:48.029Z,12.67
2023-03-15T16:24:18.697Z,12.67
2023-03-15T16:26:46.169Z,12.68
2023-03-15T16:29:19.151Z,12.66
2023-03-15T16:31:46.877Z,12.65
2023-03-15T16:34:15.855Z,12.67
2023-03-15T16:36:44.120Z,12.64
2023-03-15T16:39:15.033Z,12.62
2023-03-15T16:45:23.108Z,12.58
2023-03-15T16:48:12.276Z,12.59
2023-03-15T16:50:39.922Z,12.56
2023-03-15T16:53:08.908Z,12.56
2023-03-15T16:55:36.291Z,12.54
2023-03-15T16:58:07.614Z,12.55
2023-03-15T17:00:35.304Z,12.54
2023-03-15T17:03:16.987Z,12.53
2023-03-15T17:05:50.836Z,12.53
2023-03-15T17:08:20.417Z,12.53
2023-03-15T17:10:49.934Z,12.54
2023-03-15T17:13:19.662Z,12.53
2023-03-15T17:15:46.486Z,12.52
2023-03-15T17:18:18.448Z,12.49
2023-03-15T17:20:47.545Z,12.49
2023-03-15T17:23:14.565Z,12.48
2023-03-15T17:25:41.595Z,12.48
2023-03-15T17:28:08.632Z,12.46
2023-03-15T17:30:37.184Z,12.46
2023-03-15T17:33:05.175Z,12.46
2023-03-15T17:35:34.613Z,12.46
2023-03-15T17:38:03.273Z,12.48
2023-03-15T17:40:35.207Z,12.45
2023-03-15T17:43:03.540Z,12.45
2023-03-15T17:45:34.684Z,12.45
2023-03-15T17:48:02.065Z,12.44
2023-03-15T17:50:30.993Z,12.44
2023-03-15T17:53:01.890Z,12.43
2023-03-15T17:55:29.884Z,12.41
2023-03-15T17:57:56.788Z,12.43
2023-03-15T18:00:25.257Z,12.41
2023-03-15T18:02:56.590Z,12.42
2023-03-15T18:05:30.353Z,12.40
2023-03-15T18:08:00.062Z,12.40
2023-03-15T18:10:34.078Z,12.36
2023-03-15T18:13:01.132Z,12.38
2023-03-15T18:15:28.136Z,12.36
2023-03-15T18:17:55.004Z,12.36
2023-03-15T18:20:24.385Z,12.37
2023-03-15T18:22:51.707Z,12.36
2023-03-15T18:25:27.050Z,12.37
2023-03-15T18:27:54.120Z,12.36
2023-03-15T18:30:24.135Z,12.33
2023-03-15T18:32:52.158Z,12.32
2023-03-15T18:35:24.758Z,12.32
2023-03-15T18:37:51.775Z,12.32
2023-03-15T18:40:20.547Z,12.31
2023-03-15T18:42:47.481Z,12.32
2023-03-15T18:45:25.440Z,12.30
2023-03-15T18:47:52.421Z,12.29
2023-03-15T18:50:20.369Z,12.30
2023-03-15T18:52:47.553Z,12.28
2023-03-15T18:55:16.575Z,12.29
2023-03-15T18:57:43.550Z,12.27
2023-03-15T19:00:17.161Z,12.27
2023-03-15T19:02:46.179Z,12.27
2023-03-15T19:05:14.259Z,12.24
2023-03-15T19:07:41.677Z,12.23
2023-03-15T19:10:24.920Z,12.24
2023-03-15T19:12:53.297Z,12.24
2023-03-15T19:15:22.750Z,12.24
2023-03-15T19:17:51.709Z,12.23
2023-03-15T19:20:24.852Z,12.22
2023-03-15T19:22:52.747Z,12.21
2023-03-15T19:25:20.203Z,12.22
2023-03-15T19:27:47.027Z,12.21
2023-03-15T19:30:27.704Z,12.20
2023-03-15T19:32:54.960Z,12.20
2023-03-15T19:35:22.105Z,12.19
2023-03-15T19:37:49.088Z,12.18
2023-03-15T19:40:19.952Z,12.18
2023-03-15T19:42:47.076Z,12.19
2023-03-15T19:45:13.986Z,12.19
2023-03-15T19:47:41.155Z,12.19
2023-03-15T19:50:11.622Z,12.20
2023-03-15T19:52:45.850Z,12.19
2023-03-15T19:55:17.604Z,12.18
2023-03-15T19:57:45.048Z,12.17
